Webcam Flughafen St.Gallen-Altenrhein

Live-Bilder und Zeitraffer LSZR / ACH.

 

Live aus Altenrhein
LIVE
LSZR 231720Z 28005KT CAVOK 19/08 Q1016 NOSIG RMK O
Zeitraffer heute
2019-05-23 00:14:54
LSZR 222150Z AUTO VRB01KT 9999 NCD 12/10 Q1020
Zeitraffer gestern
2019-05-22 00:14:48
LSZR 212150Z AUTO 23007KT 200V280 9999 -RA BKN048 SCT060 12/10 Q1017
Zeitraffer vor 3 Tagen
2019-05-20 00:14:29
LSZR 192150Z AUTO VRB01KT 9999 -DZ FEW041 OVC060 13/12 Q1004